sensor_id;sensor_type;location;lat;lon;timestamp;pressure;altitude;pressure_sealevel;temperature;humidity
68889;BME280;55930;47.412;8.790;2023-04-24T00:01:44;93816.22;;;8.71;100.00
68889;BME280;55930;47.412;8.790;2023-04-24T00:05:05;93811.53;;;8.60;100.00
68889;BME280;55930;47.412;8.790;2023-04-24T00:08:28;93819.94;;;8.59;100.00
68889;BME280;55930;47.412;8.790;2023-04-24T00:11:48;93806.09;;;8.49;100.00
68889;BME280;55930;47.412;8.790;2023-04-24T00:15:09;93819.59;;;8.51;100.00
68889;BME280;55930;47.412;8.790;2023-04-24T00:18:30;93827.59;;;8.57;100.00
68889;BME280;55930;47.412;8.790;2023-04-24T00:21:50;93827.06;;;8.53;100.00
68889;BME280;55930;47.412;8.790;2023-04-24T00:25:13;93825.06;;;8.48;100.00
68889;BME280;55930;47.412;8.790;2023-04-24T00:28:33;93822.50;;;8.53;100.00
68889;BME280;55930;47.412;8.790;2023-04-24T00:31:56;93824.44;;;8.53;100.00
68889;BME280;55930;47.412;8.790;2023-04-24T00:35:17;93824.16;;;8.51;100.00
68889;BME280;55930;47.412;8.790;2023-04-24T00:38:39;93818.13;;;8.50;100.00
68889;BME280;55930;47.412;8.790;2023-04-24T00:42:00;93818.66;;;8.54;100.00
68889;BME280;55930;47.412;8.790;2023-04-24T00:45:21;93817.69;;;8.52;100.00
68889;BME280;55930;47.412;8.790;2023-04-24T00:48:42;93813.84;;;8.53;100.00
68889;BME280;55930;47.412;8.790;2023-04-24T00:52:03;93816.94;;;8.51;100.00
68889;BME280;55930;47.412;8.790;2023-04-24T00:55:30;93812.69;;;8.39;100.00
68889;BME280;55930;47.412;8.790;2023-04-24T00:58:51;93813.66;;;8.36;100.00
68889;BME280;55930;47.412;8.790;2023-04-24T01:02:12;93817.81;;;8.42;100.00
68889;BME280;55930;47.412;8.790;2023-04-24T01:05:33;93813.91;;;8.38;100.00
68889;BME280;55930;47.412;8.790;2023-04-24T01:08:54;93811.72;;;8.36;100.00
68889;BME280;55930;47.412;8.790;2023-04-24T01:12:15;93819.13;;;8.32;100.00
68889;BME280;55930;47.412;8.790;2023-04-24T01:15:36;93824.09;;;8.30;100.00
68889;BME280;55930;47.412;8.790;2023-04-24T01:18:56;93824.25;;;8.21;100.00
68889;BME280;55930;47.412;8.790;2023-04-24T01:22:19;93827.78;;;8.18;100.00
68889;BME280;55930;47.412;8.790;2023-04-24T01:25:41;93829.81;;;8.08;100.00
68889;BME280;55930;47.412;8.790;2023-04-24T01:29:01;93831.38;;;8.00;100.00
68889;BME280;55930;47.412;8.790;2023-04-24T01:32:21;93827.38;;;8.05;100.00
68889;BME280;55930;47.412;8.790;2023-04-24T01:35:42;93817.94;;;7.84;100.00
68889;BME280;55930;47.412;8.790;2023-04-24T01:39:02;93815.13;;;7.87;100.00
68889;BME280;55930;47.412;8.790;2023-04-24T01:42:23;93830.88;;;7.82;100.00
68889;BME280;55930;47.412;8.790;2023-04-24T01:45:44;93824.88;;;7.81;100.00
68889;BME280;55930;47.412;8.790;2023-04-24T01:49:04;93822.31;;;7.87;100.00
68889;BME280;55930;47.412;8.790;2023-04-24T01:52:25;93827.88;;;7.89;100.00
68889;BME280;55930;47.412;8.790;2023-04-24T01:55:49;93831.34;;;7.80;100.00
68889;BME280;55930;47.412;8.790;2023-04-24T01:59:12;93828.16;;;7.76;100.00
68889;BME280;55930;47.412;8.790;2023-04-24T02:02:33;93826.69;;;7.75;100.00
68889;BME280;55930;47.412;8.790;2023-04-24T02:05:54;93825.59;;;7.82;100.00
68889;BME280;55930;47.412;8.790;2023-04-24T02:09:14;93828.50;;;7.84;100.00
68889;BME280;55930;47.412;8.790;2023-04-24T02:12:34;93832.44;;;7.74;100.00
68889;BME280;55930;47.412;8.790;2023-04-24T02:15:55;93822.69;;;7.80;100.00
68889;BME280;55930;47.412;8.790;2023-04-24T02:19:18;93822.63;;;7.74;100.00
68889;BME280;55930;47.412;8.790;2023-04-24T02:22:38;93820.88;;;7.71;100.00
68889;BME280;55930;47.412;8.790;2023-04-24T02:26:01;93816.50;;;7.68;100.00
68889;BME280;55930;47.412;8.790;2023-04-24T02:29:23;93814.69;;;7.74;100.00
68889;BME280;55930;47.412;8.790;2023-04-24T02:32:44;93816.13;;;7.75;100.00
68889;BME280;55930;47.412;8.790;2023-04-24T02:36:05;93809.66;;;7.76;100.00
68889;BME280;55930;47.412;8.790;2023-04-24T02:39:25;93813.97;;;7.74;100.00
68889;BME280;55930;47.412;8.790;2023-04-24T02:42:48;93813.97;;;7.74;100.00
68889;BME280;55930;47.412;8.790;2023-04-24T02:46:08;93820.97;;;7.77;100.00
68889;BME280;55930;47.412;8.790;2023-04-24T02:49:29;93816.97;;;7.66;100.00
68889;BME280;55930;47.412;8.790;2023-04-24T02:52:49;93810.50;;;7.53;100.00
68889;BME280;55930;47.412;8.790;2023-04-24T02:56:09;93812.59;;;7.63;100.00
68889;BME280;55930;47.412;8.790;2023-04-24T02:59:34;93814.16;;;7.55;100.00
68889;BME280;55930;47.412;8.790;2023-04-24T03:02:55;93803.41;;;7.59;100.00
68889;BME280;55930;47.412;8.790;2023-04-24T03:06:15;93801.25;;;7.57;100.00
68889;BME280;55930;47.412;8.790;2023-04-24T03:09:36;93796.78;;;7.63;100.00
68889;BME280;55930;47.412;8.790;2023-04-24T03:12:56;93793.13;;;7.61;100.00
68889;BME280;55930;47.412;8.790;2023-04-24T03:16:16;93788.06;;;7.57;100.00
68889;BME280;55930;47.412;8.790;2023-04-24T03:19:37;93782.88;;;7.48;100.00
68889;BME280;55930;47.412;8.790;2023-04-24T03:22:57;93799.06;;;7.56;100.00
68889;BME280;55930;47.412;8.790;2023-04-24T03:26:17;93791.94;;;7.62;100.00
68889;BME280;55930;47.412;8.790;2023-04-24T03:29:38;93790.88;;;7.54;100.00
68889;BME280;55930;47.412;8.790;2023-04-24T03:32:58;93799.06;;;7.56;100.00
68889;BME280;55930;47.412;8.790;2023-04-24T03:36:19;93790.06;;;7.48;100.00
68889;BME280;55930;47.412;8.790;2023-04-24T03:39:39;93790.69;;;7.57;100.00
68889;BME280;55930;47.412;8.790;2023-04-24T03:42:59;93805.16;;;7.47;100.00
68889;BME280;55930;47.412;8.790;2023-04-24T03:46:20;93810.88;;;7.46;100.00
68889;BME280;55930;47.412;8.790;2023-04-24T03:49:40;93807.34;;;7.49;100.00
68889;BME280;55930;47.412;8.790;2023-04-24T03:53:01;93795.25;;;7.57;100.00
68889;BME280;55930;47.412;8.790;2023-04-24T03:56:21;93797.03;;;7.51;100.00
68889;BME280;55930;47.412;8.790;2023-04-24T03:59:41;93800.50;;;7.57;100.00
68889;BME280;55930;47.412;8.790;2023-04-24T04:03:04;93800.88;;;7.50;100.00
68889;BME280;55930;47.412;8.790;2023-04-24T04:06:25;93802.44;;;7.42;100.00
68889;BME280;55930;47.412;8.790;2023-04-24T04:09:47;93805.31;;;7.44;100.00
68889;BME280;55930;47.412;8.790;2023-04-24T04:13:07;93796.50;;;7.47;100.00
68889;BME280;55930;47.412;8.790;2023-04-24T04:16:27;93797.78;;;7.37;100.00
68889;BME280;55930;47.412;8.790;2023-04-24T04:19:50;93814.44;;;7.43;100.00
68889;BME280;55930;47.412;8.790;2023-04-24T04:23:10;93813.06;;;7.47;100.00
68889;BME280;55930;47.412;8.790;2023-04-24T04:26:31;93807.88;;;7.38;100.00
68889;BME280;55930;47.412;8.790;2023-04-24T04:29:52;93812.88;;;7.36;100.00
68889;BME280;55930;47.412;8.790;2023-04-24T04:33:13;93819.09;;;7.48;100.00
68889;BME280;55930;47.412;8.790;2023-04-24T04:36:34;93813.44;;;7.40;100.00
68889;BME280;55930;47.412;8.790;2023-04-24T04:40:00;93829.91;;;7.50;100.00
68889;BME280;55930;47.412;8.790;2023-04-24T04:43:20;93831.09;;;7.49;100.00
68889;BME280;55930;47.412;8.790;2023-04-24T04:46:41;93837.72;;;7.59;100.00
68889;BME280;55930;47.412;8.790;2023-04-24T04:50:02;93845.75;;;7.64;100.00
68889;BME280;55930;47.412;8.790;2023-04-24T04:53:23;93838.38;;;7.54;100.00
68889;BME280;55930;47.412;8.790;2023-04-24T04:56:44;93853.09;;;7.46;100.00
68889;BME280;55930;47.412;8.790;2023-04-24T05:00:07;93860.03;;;7.58;100.00
68889;BME280;55930;47.412;8.790;2023-04-24T05:03:30;93876.56;;;7.58;100.00
68889;BME280;55930;47.412;8.790;2023-04-24T05:06:51;93881.84;;;7.58;100.00
68889;BME280;55930;47.412;8.790;2023-04-24T05:10:11;93881.69;;;7.62;100.00
68889;BME280;55930;47.412;8.790;2023-04-24T05:13:32;93897.44;;;7.56;100.00
68889;BME280;55930;47.412;8.790;2023-04-24T05:16:52;93907.63;;;7.49;100.00
68889;BME280;55930;47.412;8.790;2023-04-24T05:20:12;93914.69;;;7.43;100.00
68889;BME280;55930;47.412;8.790;2023-04-24T05:23:33;93922.59;;;7.28;100.00
68889;BME280;55930;47.412;8.790;2023-04-24T05:26:53;93926.25;;;7.30;100.00
68889;BME280;55930;47.412;8.790;2023-04-24T05:30:14;93925.03;;;7.17;100.00
68889;BME280;55930;47.412;8.790;2023-04-24T05:33:34;93931.50;;;7.30;100.00
68889;BME280;55930;47.412;8.790;2023-04-24T05:36:55;93930.06;;;7.29;100.00
68889;BME280;55930;47.412;8.790;2023-04-24T05:40:18;93916.81;;;7.00;100.00
68889;BME280;55930;47.412;8.790;2023-04-24T05:43:38;93938.59;;;7.24;100.00
68889;BME280;55930;47.412;8.790;2023-04-24T05:46:58;93940.97;;;7.22;100.00
68889;BME280;55930;47.412;8.790;2023-04-24T05:50:19;93940.97;;;7.22;100.00
68889;BME280;55930;47.412;8.790;2023-04-24T05:53:39;93951.88;;;7.30;100.00
68889;BME280;55930;47.412;8.790;2023-04-24T05:56:59;93952.47;;;7.34;100.00
68889;BME280;55930;47.412;8.790;2023-04-24T06:00:25;93951.28;;;7.11;100.00
68889;BME280;55930;47.412;8.790;2023-04-24T06:03:48;93966.94;;;7.39;100.00
68889;BME280;55930;47.412;8.790;2023-04-24T06:07:11;93961.06;;;7.35;100.00
68889;BME280;55930;47.412;8.790;2023-04-24T06:10:31;93967.59;;;7.48;100.00
68889;BME280;55930;47.412;8.790;2023-04-24T06:13:52;93971.78;;;7.55;100.00
68889;BME280;55930;47.412;8.790;2023-04-24T06:17:12;93971.03;;;7.40;100.00
68889;BME280;55930;47.412;8.790;2023-04-24T06:20:32;93967.97;;;7.71;100.00
68889;BME280;55930;47.412;8.790;2023-04-24T06:23:56;93970.34;;;7.68;100.00
68889;BME280;55930;47.412;8.790;2023-04-24T06:27:18;93964.50;;;7.50;100.00
68889;BME280;55930;47.412;8.790;2023-04-24T06:30:39;93958.50;;;7.64;100.00
68889;BME280;55930;47.412;8.790;2023-04-24T06:34:02;93952.59;;;7.84;100.00
68889;BME280;55930;47.412;8.790;2023-04-24T06:37:23;93965.72;;;7.78;100.00
68889;BME280;55930;47.412;8.790;2023-04-24T06:40:43;93972.69;;;7.66;100.00
68889;BME280;55930;47.412;8.790;2023-04-24T06:44:07;93964.44;;;7.74;100.00
68889;BME280;55930;47.412;8.790;2023-04-24T06:47:27;93977.88;;;7.61;100.00
68889;BME280;55930;47.412;8.790;2023-04-24T06:50:47;93978.53;;;7.71;100.00
68889;BME280;55930;47.412;8.790;2023-04-24T06:54:08;93979.06;;;7.75;100.00
68889;BME280;55930;47.412;8.790;2023-04-24T06:57:28;93980.00;;;8.16;100.00
68889;BME280;55930;47.412;8.790;2023-04-24T07:00:49;93985.81;;;7.90;100.00
68889;BME280;55930;47.412;8.790;2023-04-24T07:04:12;93979.38;;;8.50;100.00
68889;BME280;55930;47.412;8.790;2023-04-24T07:07:33;93983.97;;;9.05;100.00
68889;BME280;55930;47.412;8.790;2023-04-24T07:10:54;93979.81;;;9.85;100.00
68889;BME280;55930;47.412;8.790;2023-04-24T07:14:14;93975.84;;;11.48;100.00
68889;BME280;55930;47.412;8.790;2023-04-24T07:17:35;93976.75;;;12.44;100.00
68889;BME280;55930;47.412;8.790;2023-04-24T07:20:57;93977.75;;;11.42;100.00
68889;BME280;55930;47.412;8.790;2023-04-24T07:24:18;93986.44;;;10.89;100.00
68889;BME280;55930;47.412;8.790;2023-04-24T07:27:38;93989.13;;;10.26;100.00
68889;BME280;55930;47.412;8.790;2023-04-24T07:30:59;93987.44;;;10.03;100.00
68889;BME280;55930;47.412;8.790;2023-04-24T07:34:20;93977.84;;;9.80;100.00
68889;BME280;55930;47.412;8.790;2023-04-24T07:37:40;93980.72;;;9.82;100.00
68889;BME280;55930;47.412;8.790;2023-04-24T07:41:05;93979.34;;;10.12;100.00
68889;BME280;55930;47.412;8.790;2023-04-24T07:44:26;93988.69;;;10.33;100.00
68889;BME280;55930;47.412;8.790;2023-04-24T07:47:46;94006.72;;;12.11;100.00
68889;BME280;55930;47.412;8.790;2023-04-24T07:51:06;94002.28;;;10.47;100.00
68889;BME280;55930;47.412;8.790;2023-04-24T07:54:28;93998.69;;;10.81;100.00
68889;BME280;55930;47.412;8.790;2023-04-24T07:57:49;94003.56;;;10.57;100.00
68889;BME280;55930;47.412;8.790;2023-04-24T08:01:10;94001.13;;;10.85;100.00
68889;BME280;55930;47.412;8.790;2023-04-24T08:04:30;94009.97;;;10.13;100.00
68889;BME280;55930;47.412;8.790;2023-04-24T08:07:53;94002.41;;;10.06;100.00
68889;BME280;55930;47.412;8.790;2023-04-24T08:11:14;94017.25;;;9.98;100.00
68889;BME280;55930;47.412;8.790;2023-04-24T08:14:34;94015.78;;;9.71;100.00
68889;BME280;55930;47.412;8.790;2023-04-24T08:17:55;94036.75;;;9.95;100.00
68889;BME280;55930;47.412;8.790;2023-04-24T08:21:17;94058.28;;;9.42;100.00
68889;BME280;55930;47.412;8.790;2023-04-24T08:24:38;94082.97;;;8.25;100.00
68889;BME280;55930;47.412;8.790;2023-04-24T08:27:59;94097.38;;;7.38;100.00
68889;BME280;55930;47.412;8.790;2023-04-24T08:31:19;94099.28;;;6.71;100.00
68889;BME280;55930;47.412;8.790;2023-04-24T08:34:39;94102.53;;;6.57;100.00
68889;BME280;55930;47.412;8.790;2023-04-24T08:38:00;94117.78;;;7.61;100.00
68889;BME280;55930;47.412;8.790;2023-04-24T08:41:21;94121.81;;;7.71;100.00
68889;BME280;55930;47.412;8.790;2023-04-24T08:44:45;94115.44;;;8.01;100.00
68889;BME280;55930;47.412;8.790;2023-04-24T08:48:05;94116.13;;;8.26;100.00
68889;BME280;55930;47.412;8.790;2023-04-24T08:51:31;94117.75;;;9.26;100.00
68889;BME280;55930;47.412;8.790;2023-04-24T08:54:52;94126.22;;;8.66;100.00
68889;BME280;55930;47.412;8.790;2023-04-24T08:58:15;94116.19;;;8.02;100.00
68889;BME280;55930;47.412;8.790;2023-04-24T09:01:37;94122.22;;;8.17;100.00
68889;BME280;55930;47.412;8.790;2023-04-24T09:04:58;94121.47;;;8.99;100.00
68889;BME280;55930;47.412;8.790;2023-04-24T09:08:19;94114.19;;;9.29;100.00
68889;BME280;55930;47.412;8.790;2023-04-24T09:11:40;94122.19;;;10.10;100.00
68889;BME280;55930;47.412;8.790;2023-04-24T09:15:02;94121.59;;;10.67;96.24
68889;BME280;55930;47.412;8.790;2023-04-24T09:18:23;94127.31;;;12.13;92.58
68889;BME280;55930;47.412;8.790;2023-04-24T09:21:53;94120.63;;;14.78;81.78
68889;BME280;55930;47.412;8.790;2023-04-24T09:25:14;94115.75;;;15.42;73.91
68889;BME280;55930;47.412;8.790;2023-04-24T09:28:40;94119.59;;;17.08;65.54
68889;BME280;55930;47.412;8.790;2023-04-24T09:32:17;94109.56;;;19.42;57.94
68889;BME280;55930;47.412;8.790;2023-04-24T09:35:42;94110.84;;;18.52;57.38
68889;BME280;55930;47.412;8.790;2023-04-24T09:39:05;94112.97;;;20.86;56.51
68889;BME280;55930;47.412;8.790;2023-04-24T09:42:29;94108.88;;;16.20;64.17
68889;BME280;55930;47.412;8.790;2023-04-24T09:45:55;94114.09;;;15.39;69.38
68889;BME280;55930;47.412;8.790;2023-04-24T09:49:22;94117.94;;;15.92;65.87
68889;BME280;55930;47.412;8.790;2023-04-24T09:52:55;94133.50;;;13.59;73.25
68889;BME280;55930;47.412;8.790;2023-04-24T09:56:16;94121.91;;;13.06;74.01
68889;BME280;55930;47.412;8.790;2023-04-24T09:59:42;94133.47;;;11.40;80.77
68889;BME280;55930;47.412;8.790;2023-04-24T10:03:05;94137.41;;;11.19;83.73
68889;BME280;55930;47.412;8.790;2023-04-24T10:06:35;94129.31;;;11.02;85.30
68889;BME280;55930;47.412;8.790;2023-04-24T10:09:58;94137.34;;;18.22;58.47
68889;BME280;55930;47.412;8.790;2023-04-24T10:13:20;94111.75;;;17.55;58.73
68889;BME280;55930;47.412;8.790;2023-04-24T10:16:41;94109.38;;;19.19;51.89
68889;BME280;55930;47.412;8.790;2023-04-24T10:20:02;94113.91;;;20.38;50.07
68889;BME280;55930;47.412;8.790;2023-04-24T10:23:24;94110.47;;;19.44;54.37
68889;BME280;55930;47.412;8.790;2023-04-24T10:26:46;94125.34;;;15.32;58.16
68889;BME280;55930;47.412;8.790;2023-04-24T10:30:09;94111.41;;;14.79;62.37
68889;BME280;55930;47.412;8.790;2023-04-24T10:33:31;94120.38;;;16.52;58.35
68889;BME280;55930;47.412;8.790;2023-04-24T10:36:52;94127.66;;;15.95;60.98
68889;BME280;55930;47.412;8.790;2023-04-24T10:40:18;94130.56;;;15.43;60.11
68889;BME280;55930;47.412;8.790;2023-04-24T10:43:39;94130.19;;;14.68;63.52
68889;BME280;55930;47.412;8.790;2023-04-24T10:47:01;94141.94;;;13.79;63.24
68889;BME280;55930;47.412;8.790;2023-04-24T10:50:21;94121.78;;;15.97;59.20
68889;BME280;55930;47.412;8.790;2023-04-24T10:53:42;94136.91;;;14.80;61.32
68889;BME280;55930;47.412;8.790;2023-04-24T11:00:43;94135.19;;;14.36;60.83
68889;BME280;55930;47.412;8.790;2023-04-24T11:04:05;94131.56;;;13.70;64.43
68889;BME280;55930;47.412;8.790;2023-04-24T11:07:25;94129.16;;;15.66;59.36
68889;BME280;55930;47.412;8.790;2023-04-24T11:10:47;94128.00;;;15.32;58.43
68889;BME280;55930;47.412;8.790;2023-04-24T11:14:15;94114.94;;;16.01;56.62
68889;BME280;55930;47.412;8.790;2023-04-24T11:17:37;94126.41;;;15.18;56.79
68889;BME280;55930;47.412;8.790;2023-04-24T11:20:59;94116.81;;;15.33;55.29
68889;BME280;55930;47.412;8.790;2023-04-24T11:28:03;94132.69;;;13.92;59.04
68889;BME280;55930;47.412;8.790;2023-04-24T11:31:40;94138.75;;;13.92;59.34
68889;BME280;55930;47.412;8.790;2023-04-24T11:35:08;94139.56;;;12.59;64.43
68889;BME280;55930;47.412;8.790;2023-04-24T11:38:29;94144.91;;;12.81;66.05
68889;BME280;55930;47.412;8.790;2023-04-24T11:41:49;94149.72;;;12.60;66.43
68889;BME280;55930;47.412;8.790;2023-04-24T11:45:12;94153.69;;;12.17;68.92
68889;BME280;55930;47.412;8.790;2023-04-24T11:48:36;94165.66;;;12.55;66.89
68889;BME280;55930;47.412;8.790;2023-04-24T11:52:00;94161.97;;;14.08;61.80
68889;BME280;55930;47.412;8.790;2023-04-24T11:58:42;94157.31;;;14.26;58.30
68889;BME280;55930;47.412;8.790;2023-04-24T12:02:03;94148.47;;;19.41;46.77
68889;BME280;55930;47.412;8.790;2023-04-24T12:05:29;94150.56;;;16.90;51.26
68889;BME280;55930;47.412;8.790;2023-04-24T12:08:52;94153.56;;;20.73;45.39
68889;BME280;55930;47.412;8.790;2023-04-24T12:12:18;94154.75;;;17.49;50.29
68889;BME280;55930;47.412;8.790;2023-04-24T12:15:39;94167.19;;;17.66;46.82
68889;BME280;55930;47.412;8.790;2023-04-24T12:19:01;94148.41;;;19.13;45.03
68889;BME280;55930;47.412;8.790;2023-04-24T12:22:22;94151.75;;;18.11;44.92
68889;BME280;55930;47.412;8.790;2023-04-24T12:25:42;94150.44;;;19.20;43.01
68889;BME280;55930;47.412;8.790;2023-04-24T12:29:03;94153.03;;;16.88;46.86
68889;BME280;55930;47.412;8.790;2023-04-24T12:32:24;94160.38;;;17.65;49.49
68889;BME280;55930;47.412;8.790;2023-04-24T12:35:51;94150.09;;;16.30;49.70
68889;BME280;55930;47.412;8.790;2023-04-24T12:39:17;94156.38;;;18.11;47.82
68889;BME280;55930;47.412;8.790;2023-04-24T12:42:47;94141.16;;;20.70;43.62
68889;BME280;55930;47.412;8.790;2023-04-24T12:46:08;94147.56;;;19.59;44.60
68889;BME280;55930;47.412;8.790;2023-04-24T12:49:30;94144.81;;;18.03;47.95
68889;BME280;55930;47.412;8.790;2023-04-24T12:52:50;94149.59;;;16.31;51.18
68889;BME280;55930;47.412;8.790;2023-04-24T12:56:11;94158.53;;;15.12;54.23
68889;BME280;55930;47.412;8.790;2023-04-24T12:59:31;94146.66;;;14.72;54.06
68889;BME280;55930;47.412;8.790;2023-04-24T13:02:51;94141.44;;;20.15;43.04
68889;BME280;55930;47.412;8.790;2023-04-24T13:06:11;94143.00;;;24.41;36.08
68889;BME280;55930;47.412;8.790;2023-04-24T13:09:34;94138.25;;;20.24;39.87
68889;BME280;55930;47.412;8.790;2023-04-24T13:12:54;94149.97;;;17.29;46.24
68889;BME280;55930;47.412;8.790;2023-04-24T13:16:15;94136.91;;;20.90;40.74
68889;BME280;55930;47.412;8.790;2023-04-24T13:19:37;94131.97;;;25.00;33.51
68889;BME280;55930;47.412;8.790;2023-04-24T13:22:58;94124.97;;;24.97;32.65
68889;BME280;55930;47.412;8.790;2023-04-24T13:26:18;94136.22;;;22.99;33.16
68889;BME280;55930;47.412;8.790;2023-04-24T13:29:38;94117.28;;;26.73;31.48
68889;BME280;55930;47.412;8.790;2023-04-24T13:32:59;94119.31;;;23.15;31.91
68889;BME280;55930;47.412;8.790;2023-04-24T13:36:19;94127.22;;;21.86;37.89
68889;BME280;55930;47.412;8.790;2023-04-24T13:39:40;94111.56;;;19.70;39.06
68889;BME280;55930;47.412;8.790;2023-04-24T13:43:01;94108.31;;;20.87;36.31
68889;BME280;55930;47.412;8.790;2023-04-24T13:46:22;94116.09;;;20.03;39.46
68889;BME280;55930;47.412;8.790;2023-04-24T13:49:43;94104.66;;;19.12;39.52
68889;BME280;55930;47.412;8.790;2023-04-24T13:53:03;94100.94;;;18.47;41.36
68889;BME280;55930;47.412;8.790;2023-04-24T13:56:23;94103.97;;;16.42;45.13
68889;BME280;55930;47.412;8.790;2023-04-24T13:59:44;94111.28;;;17.70;44.29
68889;BME280;55930;47.412;8.790;2023-04-24T14:03:05;94107.72;;;18.27;41.68
68889;BME280;55930;47.412;8.790;2023-04-24T14:06:28;94109.69;;;17.48;44.93
68889;BME280;55930;47.412;8.790;2023-04-24T14:09:48;94097.22;;;15.74;49.20
68889;BME280;55930;47.412;8.790;2023-04-24T14:13:09;94103.16;;;14.36;50.97
68889;BME280;55930;47.412;8.790;2023-04-24T14:16:30;94099.31;;;16.80;47.83
68889;BME280;55930;47.412;8.790;2023-04-24T14:19:50;94088.09;;;16.07;48.80
68889;BME280;55930;47.412;8.790;2023-04-24T14:23:12;94097.44;;;16.75;47.28
68889;BME280;55930;47.412;8.790;2023-04-24T14:26:32;94095.00;;;20.30;38.71
68889;BME280;55930;47.412;8.790;2023-04-24T14:29:52;94103.00;;;16.21;48.06
68889;BME280;55930;47.412;8.790;2023-04-24T14:33:13;94105.88;;;15.07;50.71
68889;BME280;55930;47.412;8.790;2023-04-24T14:36:34;94112.19;;;14.22;53.96
68889;BME280;55930;47.412;8.790;2023-04-24T14:39:55;94116.22;;;14.45;56.55
68889;BME280;55930;47.412;8.790;2023-04-24T14:43:15;94123.13;;;13.33;59.11
68889;BME280;55930;47.412;8.790;2023-04-24T14:46:36;94131.16;;;13.16;61.88
68889;BME280;55930;47.412;8.790;2023-04-24T14:49:56;94127.47;;;13.02;64.29
68889;BME280;55930;47.412;8.790;2023-04-24T14:53:16;94120.00;;;13.07;70.63
68889;BME280;55930;47.412;8.790;2023-04-24T14:56:37;94120.44;;;12.72;70.85
68889;BME280;55930;47.412;8.790;2023-04-24T15:00:02;94116.59;;;13.12;71.16
68889;BME280;55930;47.412;8.790;2023-04-24T15:03:25;94112.38;;;15.12;61.78
68889;BME280;55930;47.412;8.790;2023-04-24T15:06:46;94112.28;;;16.39;55.51
68889;BME280;55930;47.412;8.790;2023-04-24T15:10:07;94113.75;;;18.54;48.39
68889;BME280;55930;47.412;8.790;2023-04-24T15:13:27;94113.72;;;19.22;45.42
68889;BME280;55930;47.412;8.790;2023-04-24T15:16:48;94117.41;;;20.17;46.64
68889;BME280;55930;47.412;8.790;2023-04-24T15:20:08;94116.16;;;16.94;52.59
68889;BME280;55930;47.412;8.790;2023-04-24T15:23:29;94124.88;;;14.98;53.09
68889;BME280;55930;47.412;8.790;2023-04-24T15:26:50;94118.53;;;16.66;49.58
68889;BME280;55930;47.412;8.790;2023-04-24T15:30:11;94115.84;;;19.24;44.61
68889;BME280;55930;47.412;8.790;2023-04-24T15:33:32;94116.13;;;18.45;45.54
68889;BME280;55930;47.412;8.790;2023-04-24T15:36:54;94113.91;;;17.56;47.96
68889;BME280;55930;47.412;8.790;2023-04-24T15:40:15;94108.06;;;16.25;50.54
68889;BME280;55930;47.412;8.790;2023-04-24T15:43:35;94105.50;;;15.22;52.64
68889;BME280;55930;47.412;8.790;2023-04-24T15:46:56;94099.81;;;15.01;55.21
68889;BME280;55930;47.412;8.790;2023-04-24T15:50:19;94091.66;;;14.06;57.44
68889;BME280;55930;47.412;8.790;2023-04-24T15:53:41;94093.28;;;14.26;58.22
68889;BME280;55930;47.412;8.790;2023-04-24T15:57:02;94096.84;;;14.39;58.15
68889;BME280;55930;47.412;8.790;2023-04-24T16:00:23;94095.38;;;15.09;59.67
68889;BME280;55930;47.412;8.790;2023-04-24T16:03:43;94093.56;;;14.16;57.63
68889;BME280;55930;47.412;8.790;2023-04-24T16:07:07;94098.94;;;13.14;58.42
68889;BME280;55930;47.412;8.790;2023-04-24T16:10:28;94100.38;;;12.98;60.01
68889;BME280;55930;47.412;8.790;2023-04-24T16:13:49;94111.50;;;13.02;61.04
68889;BME280;55930;47.412;8.790;2023-04-24T16:17:09;94111.22;;;12.56;60.78
68889;BME280;55930;47.412;8.790;2023-04-24T16:20:30;94109.03;;;12.49;64.22
68889;BME280;55930;47.412;8.790;2023-04-24T16:23:50;94102.19;;;12.09;62.59
68889;BME280;55930;47.412;8.790;2023-04-24T16:27:11;94111.16;;;11.63;65.04
68889;BME280;55930;47.412;8.790;2023-04-24T16:30:31;94117.84;;;11.53;67.30
68889;BME280;55930;47.412;8.790;2023-04-24T16:33:52;94111.72;;;11.41;70.74
68889;BME280;55930;47.412;8.790;2023-04-24T16:37:12;94123.78;;;11.37;70.16
68889;BME280;55930;47.412;8.790;2023-04-24T16:40:33;94108.03;;;11.70;73.23
68889;BME280;55930;47.412;8.790;2023-04-24T16:43:54;94108.31;;;12.48;69.16
68889;BME280;55930;47.412;8.790;2023-04-24T16:47:17;94103.81;;;11.95;67.74
68889;BME280;55930;47.412;8.790;2023-04-24T16:50:38;94101.44;;;11.97;67.87
68889;BME280;55930;47.412;8.790;2023-04-24T16:53:59;94102.38;;;12.00;67.95
68889;BME280;55930;47.412;8.790;2023-04-24T16:57:19;94106.47;;;11.47;66.57
68889;BME280;55930;47.412;8.790;2023-04-24T17:00:40;94100.53;;;11.63;67.90
68889;BME280;55930;47.412;8.790;2023-04-24T17:04:00;94098.47;;;11.41;67.48
68889;BME280;55930;47.412;8.790;2023-04-24T17:07:20;94106.56;;;11.21;68.22
68889;BME280;55930;47.412;8.790;2023-04-24T17:10:41;94111.25;;;11.00;70.00
68889;BME280;55930;47.412;8.790;2023-04-24T17:14:01;94109.94;;;10.90;69.70
68889;BME280;55930;47.412;8.790;2023-04-24T17:17:22;94121.47;;;10.56;70.88
68889;BME280;55930;47.412;8.790;2023-04-24T17:20:44;94114.72;;;10.29;70.59
68889;BME280;55930;47.412;8.790;2023-04-24T17:24:07;94114.22;;;10.30;71.20
68889;BME280;55930;47.412;8.790;2023-04-24T17:27:27;94115.75;;;10.17;72.66
68889;BME280;55930;47.412;8.790;2023-04-24T17:30:50;94127.38;;;10.19;75.27
68889;BME280;55930;47.412;8.790;2023-04-24T17:34:11;94122.91;;;9.90;78.00
68889;BME280;55930;47.412;8.790;2023-04-24T17:37:33;94113.53;;;9.69;81.28
68889;BME280;55930;47.412;8.790;2023-04-24T17:40:54;94115.59;;;9.80;82.32
68889;BME280;55930;47.412;8.790;2023-04-24T17:44:17;94117.28;;;9.83;83.89
68889;BME280;55930;47.412;8.790;2023-04-24T17:47:37;94114.75;;;9.74;89.25
68889;BME280;55930;47.412;8.790;2023-04-24T17:50:58;94115.38;;;9.63;86.67
68889;BME280;55930;47.412;8.790;2023-04-24T17:54:18;94128.66;;;9.48;87.00
68889;BME280;55930;47.412;8.790;2023-04-24T17:57:39;94118.03;;;9.28;93.48